Mary Alice — WCX9570 — position and weather

sailwx.info

Track history (hours):
 
Tides and Currents Weather Stations Pressure Air Temp Water Temp Dewpoint Dewpoint Depression Visibility Wind Speed Wind Dir Waves Ship Positions

Mary Alice

Owner: Donjon Marine Co., Inc., HILLSIDE, NJ. More information available from US FCC via Universal Licensing System and Coast Guard Vessel Documentation Center.

Last reported at 2016-Aug-26 07:34 UTC. Time now 2016-Aug-26 08:34 UTC.
Position N 40°28' W 074°02'.

Length 21 m; draft 4.8 m.

Type: Towing. MMSI: 366744020.

Date/timePositionNaut miles runAvg speedWind from/ knotsBaromVisibWave heightAir tempDewpointWater temp
2016-Aug-26 07:34N 40°28' W 074°02'3 0.5
2016-Aug-26 02:14N 40°29' W 073°59'3 5.0
2016-Aug-26 01:33N 40°28' W 074°03'2 0.8
2016-Aug-25 23:16N 40°28' W 074°01'1 1.7
2016-Aug-25 22:33N 40°28' W 074°02'0 0.4
2016-Aug-25 21:26N 40°28' W 074°03'1 0.4
2016-Aug-25 19:17N 40°28' W 074°04'0 0.2
2016-Aug-25 17:29N 40°28' W 074°04'2 0.3
2016-Aug-25 11:28N 40°28' W 074°02'1 0.6
2016-Aug-25 10:33N 40°28' W 074°03'1 0.4
2016-Aug-25 08:26N 40°28' W 074°04'1 1.2
2016-Aug-25 07:33N 40°29' W 074°05'1 1.0
2016-Aug-25 06:26N 40°28' W 074°04'12 5.9
2016-Aug-25 04:26N 40°23' W 073°50'6 2.8
2016-Aug-25 02:08N 40°27' W 073°56'5 2.6
2016-Aug-25 00:20N 40°28' W 074°02'2 2.5
2016-Aug-24 23:27N 40°28' W 074°05'2 2.1
2016-Aug-24 22:25N 40°28' W 074°02'4 0.9
2016-Aug-24 17:19N 40°28' W 073°57'1 0.6
2016-Aug-24 16:22N 40°27' W 073°56'0 0.2
2016-Aug-24 15:20N 40°28' W 073°56'0 0.3
2016-Aug-24 14:10N 40°28' W 073°56'6 3.3
2016-Aug-24 12:13N 40°23' W 073°50'7 2.4
2016-Aug-24 09:14N 40°28' W 073°57'6 6.7
2016-Aug-24 08:22N 40°29' W 074°05'1 0.4
2016-Aug-24 06:24N 40°28' W 074°03'1 0.4
2016-Aug-24 04:32N 40°29' W 074°04'3 2.9
2016-Aug-24 03:30N 40°29' W 074°08'4 3.1
2016-Aug-24 02:10N 40°28' W 074°03'3 0.2
2016-Aug-23 14:26N 40°29' W 073°59'0 0.0
2016-Aug-23 03:24N 40°29' W 073°59'2 1.9
2016-Aug-23 02:23N 40°29' W 074°01'5 0.2
2016-Aug-21 23:19N 40°34' W 074°02'6 8.1
2016-Aug-21 22:34N 40°39' W 074°07'0 0.0
2016-Aug-21 21:33N 40°39' W 074°07'0 0.0
2016-Aug-21 20:32N 40°39' W 074°07'4 3.7
2016-Aug-21 19:33N 40°37' W 074°03'8 5.5
2016-Aug-21 18:05N 40°29' W 074°01'1 2.0
2016-Aug-21 17:33N 40°28' W 074°03'2 0.2
2016-Aug-21 07:21N 40°29' W 073°60'3 3.6
2016-Aug-21 06:33N 40°28' W 074°03'3 1.0
2016-Aug-21 03:05N 40°29' W 073°59'3 1.7
2016-Aug-21 01:27N 40°27' W 073°56'0 0.2
2016-Aug-21 00:11N 40°27' W 073°56'1 0.2
2016-Aug-20 21:30N 40°27' W 073°56'1 0.1
2016-Aug-20 13:21N 40°27' W 073°56'0 0.1
2016-Aug-20 08:27N 40°27' W 073°56'2 0.5
2016-Aug-20 04:12N 40°25' W 073°55'0 0.2
2016-Aug-20 02:15N 40°25' W 073°56'2 1.9
2016-Aug-20 01:24N 40°27' W 073°56'2 1.7
2016-Aug-20 00:08N 40°29' W 073°56'2 3.3
2016-Aug-19 23:25N 40°26' W 073°56'1 0.3
2016-Aug-19 18:21N 40°28' W 073°56'1 0.9
2016-Aug-19 17:28N 40°27' W 073°56'4 1.0
2016-Aug-19 13:23N 40°28' W 074°01'5 0.9
2016-Aug-19 08:22N 40°26' W 073°56'1 0.1
2016-Aug-19 04:20N 40°26' W 073°56'1 0.9
2016-Aug-19 03:33N 40°27' W 073°56'2 2.2
2016-Aug-19 02:25N 40°29' W 073°56'2 0.4
2016-Aug-18 22:13N 40°27' W 073°57'4 5.1
2016-Aug-18 21:25N 40°28' W 074°02'5 0.9
2016-Aug-18 15:19N 40°25' W 073°56'4 0.5
2016-Aug-18 07:33N 40°29' W 073°59'1 0.1
2016-Aug-18 00:31N 40°29' W 073°60'2 0.1
2016-Aug-16 21:25N 40°28' W 073°57'2 1.8
2016-Aug-16 20:31N 40°29' W 073°59'3 0.4
2016-Aug-16 14:31N 40°27' W 073°56'1 0.9
2016-Aug-16 13:26N 40°27' W 073°57'1 0.3
2016-Aug-16 11:25N 40°27' W 073°57'4 3.1
2016-Aug-16 10:08N 40°23' W 073°56'  
Track history (hours):
 
Tides and Currents Weather Stations Pressure Air Temp Water Temp Dewpoint Dewpoint Depression Visibility Wind Speed Wind Dir Waves Ship Positions

Mary Alice

Owner: Donjon Marine Co., Inc., HILLSIDE, NJ. More information available from US FCC via Universal Licensing System and Coast Guard Vessel Documentation Center.

Last reported at 2016-Aug-26 07:34 UTC. Time now 2016-Aug-26 08:34 UTC.
Position N 40°28' W 074°02'.

Length 21 m; draft 4.8 m.

Type: Towing. MMSI: 366744020.

Date/timePositionNaut miles runAvg speedWind from/ knotsBaromVisibWave heightAir tempDewpointWater temp
2016-Aug-26 07:34N 40°28' W 074°02'3 0.5
2016-Aug-26 02:14N 40°29' W 073°59'3 5.0
2016-Aug-26 01:33N 40°28' W 074°03'2 0.8
2016-Aug-25 23:16N 40°28' W 074°01'1 1.7
2016-Aug-25 22:33N 40°28' W 074°02'0 0.4
2016-Aug-25 21:26N 40°28' W 074°03'1 0.4
2016-Aug-25 19:17N 40°28' W 074°04'0 0.2
2016-Aug-25 17:29N 40°28' W 074°04'2 0.3
2016-Aug-25 11:28N 40°28' W 074°02'1 0.6
2016-Aug-25 10:33N 40°28' W 074°03'1 0.4
2016-Aug-25 08:26N 40°28' W 074°04'1 1.2
2016-Aug-25 07:33N 40°29' W 074°05'1 1.0
2016-Aug-25 06:26N 40°28' W 074°04'12 5.9
2016-Aug-25 04:26N 40°23' W 073°50'6 2.8
2016-Aug-25 02:08N 40°27' W 073°56'5 2.6
2016-Aug-25 00:20N 40°28' W 074°02'2 2.5
2016-Aug-24 23:27N 40°28' W 074°05'2 2.1
2016-Aug-24 22:25N 40°28' W 074°02'4 0.9
2016-Aug-24 17:19N 40°28' W 073°57'1 0.6
2016-Aug-24 16:22N 40°27' W 073°56'0 0.2
2016-Aug-24 15:20N 40°28' W 073°56'0 0.3
2016-Aug-24 14:10N 40°28' W 073°56'6 3.3
2016-Aug-24 12:13N 40°23' W 073°50'7 2.4
2016-Aug-24 09:14N 40°28' W 073°57'6 6.7
2016-Aug-24 08:22N 40°29' W 074°05'1 0.4
2016-Aug-24 06:24N 40°28' W 074°03'1 0.4
2016-Aug-24 04:32N 40°29' W 074°04'3 2.9
2016-Aug-24 03:30N 40°29' W 074°08'4 3.1
2016-Aug-24 02:10N 40°28' W 074°03'3 0.2
2016-Aug-23 14:26N 40°29' W 073°59'0 0.0
2016-Aug-23 03:24N 40°29' W 073°59'2 1.9
2016-Aug-23 02:23N 40°29' W 074°01'5 0.2
2016-Aug-21 23:19N 40°34' W 074°02'6 8.1
2016-Aug-21 22:34N 40°39' W 074°07'0 0.0
2016-Aug-21 21:33N 40°39' W 074°07'0 0.0
2016-Aug-21 20:32N 40°39' W 074°07'4 3.7
2016-Aug-21 19:33N 40°37' W 074°03'8 5.5
2016-Aug-21 18:05N 40°29' W 074°01'1 2.0
2016-Aug-21 17:33N 40°28' W 074°03'2 0.2
2016-Aug-21 07:21N 40°29' W 073°60'3 3.6
2016-Aug-21 06:33N 40°28' W 074°03'3 1.0
2016-Aug-21 03:05N 40°29' W 073°59'3 1.7
2016-Aug-21 01:27N 40°27' W 073°56'0 0.2
2016-Aug-21 00:11N 40°27' W 073°56'1 0.2
2016-Aug-20 21:30N 40°27' W 073°56'1 0.1
2016-Aug-20 13:21N 40°27' W 073°56'0 0.1
2016-Aug-20 08:27N 40°27' W 073°56'2 0.5
2016-Aug-20 04:12N 40°25' W 073°55'0 0.2
2016-Aug-20 02:15N 40°25' W 073°56'2 1.9
2016-Aug-20 01:24N 40°27' W 073°56'2 1.7
2016-Aug-20 00:08N 40°29' W 073°56'2 3.3
2016-Aug-19 23:25N 40°26' W 073°56'1 0.3
2016-Aug-19 18:21N 40°28' W 073°56'1 0.9
2016-Aug-19 17:28N 40°27' W 073°56'4 1.0
2016-Aug-19 13:23N 40°28' W 074°01'5 0.9
2016-Aug-19 08:22N 40°26' W 073°56'1 0.1
2016-Aug-19 04:20N 40°26' W 073°56'1 0.9
2016-Aug-19 03:33N 40°27' W 073°56'2 2.2
2016-Aug-19 02:25N 40°29' W 073°56'2 0.4
2016-Aug-18 22:13N 40°27' W 073°57'4 5.1
2016-Aug-18 21:25N 40°28' W 074°02'5 0.9
2016-Aug-18 15:19N 40°25' W 073°56'4 0.5
2016-Aug-18 07:33N 40°29' W 073°59'1 0.1
2016-Aug-18 00:31N 40°29' W 073°60'2 0.1
2016-Aug-16 21:25N 40°28' W 073°57'2 1.8
2016-Aug-16 20:31N 40°29' W 073°59'3 0.4
2016-Aug-16 14:31N 40°27' W 073°56'1 0.9
2016-Aug-16 13:26N 40°27' W 073°57'1 0.3
2016-Aug-16 11:25N 40°27' W 073°57'4 3.1
2016-Aug-16 10:08N 40°23' W 073°56'  

Dump ship's entire track history